Time;durP1;ratioP1;P1;durP2;ratioP2;P2;SDS_P1;SDS_P2;PMS_P1;PMS_P2;Temp;Humidity;BMP_temperature;BMP_pressure;BME280_temperature;BME280_humidity;BME280_pressure;Samples;Min_cycle;Max_cycle;Signal;HPM_P1;HPM_P2
2022/04/09 00:02:06;;;;;;;7.47;3.70;;;6.00;99.90;;;;;;4975258;28;20600;-81
2022/04/09 00:04:32;;;;;;;5.50;3.03;;;6.10;99.90;;;;;;4992004;28;20296;-79
2022/04/09 00:06:57;;;;;;;3.83;2.27;;;6.30;99.90;;;;;;4976301;28;20178;-78
2022/04/09 00:09:23;;;;;;;5.67;3.13;;;6.30;99.90;;;;;;4993959;28;20181;-76
2022/04/09 00:11:48;;;;;;;5.27;2.93;;;6.10;99.90;;;;;;4996423;28;20213;-76
2022/04/09 00:14:14;;;;;;;10.77;3.70;;;6.10;99.90;;;;;;4978729;28;20253;-77
2022/04/09 00:16:39;;;;;;;7.87;2.67;;;6.00;99.90;;;;;;4996699;28;20213;-76
2022/04/09 00:19:05;;;;;;;5.27;3.37;;;6.00;99.90;;;;;;4996943;28;20234;-76
2022/04/09 00:21:31;;;;;;;6.30;3.47;;;6.00;99.90;;;;;;4977653;28;20269;-77
2022/04/09 00:23:57;;;;;;;9.63;3.80;;;6.00;99.90;;;;;;4977884;28;20248;-76
2022/04/09 00:26:23;;;;;;;4.77;3.07;;;5.90;99.90;;;;;;4976239;28;20320;-76
2022/04/09 00:28:49;;;;;;;10.90;4.27;;;5.80;99.90;;;;;;4975480;28;20205;-76
2022/04/09 00:31:14;;;;;;;3.63;2.87;;;5.80;99.90;;;;;;4994318;28;20237;-76
2022/04/09 00:33:40;;;;;;;5.23;2.90;;;5.80;99.90;;;;;;4976160;28;20614;-76
2022/04/09 00:36:06;;;;;;;7.30;3.50;;;5.80;99.90;;;;;;4992423;28;20217;-77
2022/04/09 00:38:31;;;;;;;6.47;3.37;;;5.80;99.90;;;;;;4992082;28;20217;-76
2022/04/09 00:40:57;;;;;;;4.50;3.27;;;5.80;99.90;;;;;;4992987;28;20210;-76
2022/04/09 00:43:22;;;;;;;6.00;3.37;;;5.80;99.90;;;;;;4992890;28;20267;-76
2022/04/09 00:45:49;;;;;;;5.23;3.00;;;5.80;99.90;;;;;;4975260;28;20225;-75
2022/04/09 00:48:15;;;;;;;11.60;3.07;;;5.70;99.90;;;;;;4992429;28;20182;-75
2022/04/09 00:50:40;;;;;;;4.87;2.80;;;5.70;99.90;;;;;;4992579;28;20304;-76
2022/04/09 00:53:09;;;;;;;7.53;2.70;;;5.70;99.90;;;;;;4992487;28;20213;-75
2022/04/09 00:58:20;;;;;;;5.80;2.70;;;5.70;99.90;;;;;;4991885;28;20268;-75
2022/04/09 01:00:46;;;;;;;5.20;2.30;;;5.70;99.90;;;;;;4992458;28;20198;-75
2022/04/09 01:03:16;;;;;;;8.43;3.00;;;5.70;99.90;;;;;;4975422;28;20277;-77
2022/04/09 01:05:43;;;;;;;8.53;2.97;;;5.70;99.90;;;;;;4974585;28;20305;-77
2022/04/09 01:08:09;;;;;;;4.30;2.50;;;5.70;99.90;;;;;;4991773;28;20629;-76
2022/04/09 01:10:35;;;;;;;7.90;2.03;;;5.70;99.90;;;;;;4992274;28;20749;-76
2022/04/09 01:13:01;;;;;;;6.63;2.47;;;5.70;99.90;;;;;;4974776;28;20174;-77
2022/04/09 01:15:26;;;;;;;6.63;2.60;;;5.70;99.90;;;;;;4975063;28;20285;-76
2022/04/09 01:17:53;;;;;;;5.23;2.53;;;5.60;99.90;;;;;;4974334;28;20300;-78
2022/04/09 01:20:21;;;;;;;8.20;3.07;;;5.60;99.90;;;;;;4975348;28;20245;-77
2022/04/09 01:22:47;;;;;;;4.47;2.37;;;5.60;99.90;;;;;;4992629;28;20210;-76
2022/04/09 01:25:12;;;;;;;8.63;2.20;;;5.50;99.90;;;;;;4976399;28;20253;-76
2022/04/09 01:27:38;;;;;;;5.80;2.10;;;5.50;99.90;;;;;;4995888;28;20185;-76
2022/04/09 01:30:04;;;;;;;5.70;2.27;;;5.50;99.90;;;;;;4976228;28;20212;-76
2022/04/09 01:32:30;;;;;;;5.57;2.27;;;5.50;99.90;;;;;;4994429;28;20583;-76
2022/04/09 01:34:55;;;;;;;7.07;2.53;;;5.50;99.90;;;;;;4994597;28;20213;-77
2022/04/09 01:37:21;;;;;;;7.37;3.23;;;5.50;99.90;;;;;;4994431;28;20210;-75
2022/04/09 01:39:46;;;;;;;5.50;2.43;;;5.50;99.90;;;;;;4975770;28;20212;-76
2022/04/09 01:42:13;;;;;;;7.90;2.37;;;5.50;99.90;;;;;;4976977;28;20183;-76
2022/04/09 01:44:38;;;;;;;4.23;2.07;;;5.50;99.90;;;;;;4976310;28;20304;-76
2022/04/09 01:47:04;;;;;;;5.43;2.63;;;5.50;99.90;;;;;;4976246;28;20626;-75
2022/04/09 01:49:29;;;;;;;5.33;2.10;;;5.40;99.90;;;;;;4975477;28;20217;-75
2022/04/09 01:51:55;;;;;;;4.27;2.03;;;5.40;99.90;;;;;;4993919;28;20181;-76
2022/04/09 01:54:20;;;;;;;8.90;2.80;;;5.40;99.90;;;;;;4994133;28;20276;-77
2022/04/09 01:56:46;;;;;;;7.50;2.30;;;5.40;99.90;;;;;;4975770;28;20751;-76
2022/04/09 01:59:11;;;;;;;7.70;2.67;;;5.40;99.90;;;;;;4991443;28;20216;-76
2022/04/09 02:01:37;;;;;;;6.73;2.63;;;5.40;99.90;;;;;;4991984;28;20296;-77
2022/04/09 02:04:02;;;;;;;4.17;2.57;;;5.30;99.90;;;;;;4991545;28;20212;-76
2022/04/09 02:06:28;;;;;;;5.13;2.47;;;5.30;99.90;;;;;;4974860;28;20676;-76
2022/04/09 02:08:54;;;;;;;6.50;2.47;;;5.30;99.90;;;;;;4973980;28;20209;-76
2022/04/09 02:11:19;;;;;;;6.63;3.30;;;5.30;99.90;;;;;;4974294;28;20686;-76
2022/04/09 02:13:45;;;;;;;7.83;2.90;;;5.30;99.90;;;;;;4974244;28;20312;-76
2022/04/09 02:16:10;;;;;;;7.93;2.77;;;5.30;99.90;;;;;;4991597;28;20312;-76
2022/04/09 02:18:36;;;;;;;6.27;2.50;;;5.20;99.90;;;;;;4973857;28;20659;-77
2022/04/09 02:21:02;;;;;;;8.10;2.90;;;5.20;99.90;;;;;;4974370;28;20209;-76
2022/04/09 02:23:27;;;;;;;7.47;2.67;;;5.20;99.90;;;;;;4983331;28;20217;-76
2022/04/09 02:25:53;;;;;;;5.27;2.80;;;5.20;99.90;;;;;;4988702;28;20212;-76
2022/04/09 02:28:18;;;;;;;5.67;3.07;;;5.20;99.90;;;;;;4970629;28;20239;-76
2022/04/09 02:30:43;;;;;;;7.00;2.37;;;5.20;99.90;;;;;;4991781;28;20186;-76
2022/04/09 02:33:09;;;;;;;15.53;2.90;;;5.10;99.90;;;;;;4991196;28;20296;-76
2022/04/09 02:35:34;;;;;;;5.77;2.67;;;5.10;99.90;;;;;;4971493;28;20217;-76
2022/04/09 02:38:02;;;;;;;5.53;2.47;;;5.10;99.90;;;;;;4953588;28;20207;-76
2022/04/09 02:40:28;;;;;;;9.23;2.93;;;5.10;99.90;;;;;;4971504;28;20256;-76
2022/04/09 02:42:54;;;;;;;6.47;2.37;;;5.10;99.90;;;;;;4957489;28;20174;-76
2022/04/09 02:45:21;;;;;;;5.50;2.83;;;5.10;99.90;;;;;;4991847;28;20229;-75
2022/04/09 02:47:46;;;;;;;7.33;3.13;;;5.10;99.90;;;;;;4994549;28;20217;-77
2022/04/09 02:50:12;;;;;;;9.80;2.93;;;5.00;99.90;;;;;;4994579;28;20227;-75
2022/04/09 02:52:39;;;;;;;6.30;2.87;;;5.00;99.90;;;;;;4977130;28;20225;-75
2022/04/09 02:55:06;;;;;;;7.93;2.93;;;5.00;99.90;;;;;;4988857;28;20226;-75
2022/04/09 02:57:32;;;;;;;7.37;3.17;;;4.90;99.90;;;;;;4975663;28;20186;-76
2022/04/09 02:59:58;;;;;;;4.47;2.20;;;4.90;99.90;;;;;;4973269;28;20214;-76
2022/04/09 03:02:24;;;;;;;6.93;3.20;;;4.80;99.90;;;;;;4994460;28;20663;-76
2022/04/09 03:04:51;;;;;;;6.17;2.77;;;4.80;99.90;;;;;;4984658;23;20247;-74
2022/04/09 03:07:17;;;;;;;8.63;3.37;;;4.80;99.90;;;;;;4936871;28;20227;-74
2022/04/09 03:09:42;;;;;;;9.43;3.47;;;4.80;99.90;;;;;;4919299;29;20194;-74
2022/04/09 03:12:08;;;;;;;5.03;2.77;;;4.80;99.90;;;;;;4936927;29;20223;-74
2022/04/09 03:14:33;;;;;;;3.70;2.47;;;4.70;99.90;;;;;;4936316;28;20595;-74
2022/04/09 03:16:59;;;;;;;6.13;2.80;;;4.70;99.90;;;;;;4919542;29;20216;-74
2022/04/09 03:19:25;;;;;;;6.30;3.40;;;4.70;99.90;;;;;;4918450;29;20257;-74
2022/04/09 03:21:50;;;;;;;11.10;3.63;;;4.70;99.90;;;;;;4919500;29;20187;-74
2022/04/09 03:24:16;;;;;;;6.83;2.80;;;4.70;99.90;;;;;;4920007;29;20219;-75
2022/04/09 03:26:41;;;;;;;10.40;3.57;;;4.70;99.90;;;;;;4936130;29;20267;-75
2022/04/09 03:29:07;;;;;;;8.30;3.00;;;4.60;99.90;;;;;;4936871;29;20207;-75
2022/04/09 03:31:35;;;;;;;6.30;2.83;;;4.60;99.90;;;;;;4919189;29;20227;-75
2022/04/09 03:34:02;;;;;;;5.90;3.17;;;4.50;99.90;;;;;;4919259;29;20172;-75
2022/04/09 03:36:28;;;;;;;8.30;2.53;;;4.50;99.90;;;;;;4938715;29;20210;-74
2022/04/09 03:38:53;;;;;;;8.27;3.00;;;4.50;99.90;;;;;;4918367;29;20234;-74
2022/04/09 03:41:19;;;;;;;6.37;2.80;;;4.40;99.90;;;;;;4935879;29;20669;-74
2022/04/09 03:43:44;;;;;;;6.60;3.03;;;4.40;99.90;;;;;;4936011;29;20215;-74
2022/04/09 03:46:10;;;;;;;9.67;3.30;;;4.40;99.90;;;;;;4936130;29;20216;-74
2022/04/09 03:48:35;;;;;;;7.53;3.30;;;4.30;99.90;;;;;;4935658;29;20179;-74
2022/04/09 03:51:00;;;;;;;9.73;3.40;;;4.30;99.90;;;;;;4919015;29;20237;-74
2022/04/09 03:53:26;;;;;;;9.17;3.67;;;4.30;99.90;;;;;;4918475;29;20688;-74
2022/04/09 03:55:52;;;;;;;6.87;3.50;;;4.40;99.90;;;;;;4918815;29;20223;-74
2022/04/09 03:58:19;;;;;;;5.80;3.13;;;4.20;99.90;;;;;;4935549;29;20762;-73
2022/04/09 04:00:45;;;;;;;10.07;3.17;;;4.20;99.90;;;;;;4918699;29;20350;-74
2022/04/09 04:03:11;;;;;;;8.13;3.30;;;4.20;99.90;;;;;;4935891;29;20307;-74
2022/04/09 04:05:37;;;;;;;5.20;2.80;;;4.20;99.90;;;;;;4935272;29;20230;-74
2022/04/09 04:08:07;;;;;;;9.23;3.47;;;4.20;99.90;;;;;;4934890;29;20215;-73
2022/04/09 04:10:34;;;;;;;6.47;3.03;;;4.20;99.90;;;;;;4935415;29;20746;-73
2022/04/09 04:13:00;;;;;;;5.53;2.73;;;4.20;99.90;;;;;;4918519;29;20180;-73
2022/04/09 04:15:26;;;;;;;11.43;3.00;;;4.10;99.90;;;;;;4924977;29;20193;-73
2022/04/09 04:17:51;;;;;;;8.73;3.43;;;4.20;99.90;;;;;;4924444;29;20314;-73
2022/04/09 04:20:17;;;;;;;8.50;3.70;;;4.20;99.90;;;;;;4919760;29;20719;-73
2022/04/09 04:22:42;;;;;;;7.93;2.80;;;4.20;99.90;;;;;;4935227;29;20287;-74
2022/04/09 04:25:09;;;;;;;8.97;2.97;;;4.10;99.90;;;;;;4935305;29;20703;-73
2022/04/09 04:27:41;;;;;;;8.70;3.00;;;4.20;99.90;;;;;;4935664;29;20276;-74
2022/04/09 04:30:07;;;;;;;8.33;2.50;;;4.20;99.90;;;;;;4935495;29;20221;-74
2022/04/09 04:32:32;;;;;;;6.43;2.57;;;4.20;99.90;;;;;;4917975;29;20263;-74
2022/04/09 04:34:58;;;;;;;8.57;2.83;;;4.20;99.90;;;;;;4917882;29;20605;-73
2022/04/09 04:37:23;;;;;;;8.50;3.20;;;4.20;99.90;;;;;;4934931;29;20219;-74
2022/04/09 04:39:49;;;;;;;5.83;3.13;;;4.30;99.90;;;;;;4934497;29;20257;-74
2022/04/09 04:42:14;;;;;;;9.63;2.97;;;4.30;99.90;;;;;;4918559;29;20676;-74
2022/04/09 04:44:40;;;;;;;7.23;3.17;;;4.30;99.90;;;;;;4917633;29;20219;-74
2022/04/09 04:47:05;;;;;;;6.37;2.50;;;4.30;99.90;;;;;;4917890;29;20700;-74
2022/04/09 04:49:31;;;;;;;9.73;3.37;;;4.30;99.90;;;;;;4934152;29;20289;-73
2022/04/09 04:51:56;;;;;;;5.70;3.27;;;4.40;99.90;;;;;;4934886;29;20197;-74
2022/04/09 04:54:22;;;;;;;8.20;3.40;;;4.70;99.90;;;;;;4918039;29;20672;-74
2022/04/09 04:56:47;;;;;;;10.23;3.20;;;4.90;99.90;;;;;;4934748;29;20211;-74
2022/04/09 04:59:15;;;;;;;6.83;2.73;;;5.90;99.90;;;;;;4933980;29;20215;-74
2022/04/09 05:01:40;;;;;;;8.07;3.10;;;7.40;99.90;;;;;;4934716;29;20286;-74
2022/04/09 05:04:07;;;;;;;7.57;2.50;;;8.40;99.90;;;;;;4916890;29;20237;-74
2022/04/09 05:06:33;;;;;;;8.43;3.17;;;8.00;99.90;;;;;;4934907;29;20223;-74
2022/04/09 05:08:58;;;;;;;6.53;2.87;;;7.80;99.90;;;;;;4935523;29;20303;-74
2022/04/09 05:11:24;;;;;;;7.13;2.40;;;7.20;99.90;;;;;;4934669;29;20223;-75
2022/04/09 05:13:49;;;;;;;5.90;2.63;;;6.80;99.90;;;;;;4934473;29;20219;-75
2022/04/09 05:16:15;;;;;;;7.83;2.83;;;6.70;99.90;;;;;;4917511;29;20306;-74
2022/04/09 05:18:41;;;;;;;7.83;2.80;;;6.40;99.90;;;;;;4916897;29;20323;-73
2022/04/09 05:21:07;;;;;;;9.43;3.27;;;6.60;99.90;;;;;;4917441;29;20724;-74
2022/04/09 05:23:32;;;;;;;8.67;2.53;;;6.70;99.90;;;;;;4917723;29;20219;-74
2022/04/09 05:25:58;;;;;;;12.97;3.03;;;8.10;99.90;;;;;;4917568;29;20290;-74
2022/04/09 05:28:23;;;;;;;5.70;2.23;;;8.60;99.90;;;;;;4933743;29;20677;-74
2022/04/09 05:30:52;;;;;;;8.53;2.77;;;8.60;99.90;;;;;;4917215;29;20247;-73
2022/04/09 05:33:19;;;;;;;7.30;2.53;;;7.70;99.90;;;;;;4917644;29;20184;-74
2022/04/09 05:35:44;;;;;;;7.70;2.63;;;8.20;99.90;;;;;;4916811;29;20218;-74
2022/04/09 05:38:10;;;;;;;10.03;2.97;;;8.40;99.90;;;;;;4935055;29;20219;-73
2022/04/09 05:40:36;;;;;;;5.07;2.10;;;7.80;99.90;;;;;;4933921;29;20739;-74
2022/04/09 05:43:03;;;;;;;7.50;2.07;;;8.90;99.90;;;;;;4916990;29;20263;-74
2022/04/09 05:45:28;;;;;;;6.57;2.50;;;9.20;99.90;;;;;;4917314;29;20210;-74
2022/04/09 05:47:54;;;;;;;4.00;1.90;;;10.20;99.90;;;;;;4917042;29;20219;-73
2022/04/09 05:50:20;;;;;;;8.87;2.10;;;9.40;99.90;;;;;;4933812;29;20220;-74
2022/04/09 05:52:48;;;;;;;9.77;2.63;;;9.20;99.90;;;;;;4926302;29;20254;-74
2022/04/09 05:55:14;;;;;;;8.33;2.27;;;9.10;99.90;;;;;;4933855;29;20697;-74
2022/04/09 05:57:40;;;;;;;6.67;2.63;;;8.60;99.90;;;;;;4916735;29;20235;-74
2022/04/09 06:00:07;;;;;;;8.03;2.30;;;8.20;99.90;;;;;;4916381;29;20223;-74
2022/04/09 06:02:34;;;;;;;5.70;2.30;;;7.70;99.90;;;;;;4916883;29;20238;-73
2022/04/09 06:04:59;;;;;;;7.67;2.63;;;7.20;99.90;;;;;;4933639;29;20207;-73
2022/04/09 06:07:26;;;;;;;5.13;2.30;;;6.80;99.90;;;;;;4918364;29;20215;-73
2022/04/09 06:09:52;;;;;;;8.33;2.67;;;6.20;99.90;;;;;;4933281;29;20223;-73
2022/04/09 06:12:18;;;;;;;10.03;2.40;;;6.20;99.90;;;;;;4934495;29;20180;-74
2022/04/09 06:14:43;;;;;;;6.87;2.40;;;6.10;99.90;;;;;;4933875;29;20331;-74
2022/04/09 06:17:09;;;;;;;10.90;2.83;;;6.20;99.90;;;;;;4920820;29;20212;-74
2022/04/09 06:19:35;;;;;;;7.77;2.20;;;6.10;99.90;;;;;;4919607;29;20648;-73
2022/04/09 06:22:01;;;;;;;9.07;3.00;;;5.90;99.90;;;;;;4937772;29;20168;-73
2022/04/09 06:24:26;;;;;;;6.57;2.53;;;6.10;99.90;;;;;;4938063;29;20226;-74
2022/04/09 06:26:52;;;;;;;7.87;2.80;;;7.30;99.90;;;;;;4920494;29;20302;-73
2022/04/09 06:29:17;;;;;;;4.33;2.30;;;8.60;99.90;;;;;;4936888;29;20614;-74
2022/04/09 06:31:47;;;;;;;6.80;2.50;;;9.60;99.90;;;;;;4937680;29;20200;-74
2022/04/09 06:34:15;;;;;;;9.50;2.67;;;12.20;99.90;;;;;;4937911;29;20215;-74
2022/04/09 06:36:41;;;;;;;10.93;2.37;;;13.50;99.90;;;;;;4937647;29;20227;-74
2022/04/09 06:39:06;;;;;;;6.47;1.83;;;14.50;99.90;;;;;;4938662;29;20313;-75
2022/04/09 06:41:33;;;;;;;5.05;2.20;;;15.70;99.90;;;;;;4920286;29;20200;-75
2022/04/09 06:43:59;;;;;;;7.22;2.60;;;15.90;99.90;;;;;;4937268;29;20227;-75
2022/04/09 06:46:25;;;;;;;6.15;2.55;;;15.30;99.90;;;;;;4920025;29;20223;-75
2022/04/09 06:48:51;;;;;;;7.00;2.22;;;15.80;99.90;;;;;;4919541;29;20196;-75
2022/04/09 06:51:16;;;;;;;6.65;1.85;;;15.70;99.90;;;;;;4924226;29;20195;-74
2022/04/09 06:53:42;;;;;;;6.47;2.25;;;16.60;99.90;;;;;;4920284;29;20705;-74
2022/04/09 06:56:07;;;;;;;6.80;2.38;;;15.50;99.90;;;;;;4936729;28;20253;-74
2022/04/09 06:58:34;;;;;;;6.18;2.35;;;16.10;99.90;;;;;;4935776;29;20212;-74
2022/04/09 07:01:00;;;;;;;6.15;2.50;;;15.30;99.90;;;;;;4937021;29;20580;-75
2022/04/09 07:03:26;;;;;;;5.35;2.15;;;14.10;99.90;;;;;;4937636;29;20207;-74
2022/04/09 07:05:52;;;;;;;5.93;2.40;;;14.30;99.90;;;;;;4919848;29;20795;-75
2022/04/09 07:08:17;;;;;;;9.10;2.50;;;15.00;99.90;;;;;;4937632;28;20314;-74
2022/04/09 07:10:43;;;;;;;7.35;2.95;;;15.70;99.90;;;;;;4919317;29;20299;-73
2022/04/09 07:13:08;;;;;;;12.02;4.13;;;15.90;99.90;;;;;;4936804;29;20216;-74
2022/04/09 07:15:34;;;;;;;7.72;3.13;;;16.00;99.90;;;;;;4936790;29;20235;-73
2022/04/09 07:18:00;;;;;;;7.80;3.17;;;15.80;99.90;;;;;;4936216;29;20223;-73
2022/04/09 07:20:26;;;;;;;11.50;5.45;;;14.70;99.90;;;;;;4936200;28;20234;-74
2022/04/09 07:22:51;;;;;;;5.93;3.00;;;13.80;99.90;;;;;;4936109;29;20331;-73
2022/04/09 07:25:17;;;;;;;6.03;2.67;;;12.90;99.90;;;;;;4936457;29;20269;-73
2022/04/09 07:27:44;;;;;;;7.03;2.33;;;12.60;99.90;;;;;;4935580;29;20665;-73
2022/04/09 07:30:14;;;;;;;7.47;3.00;;;11.50;99.90;;;;;;4924445;29;20235;-73
2022/04/09 07:32:41;;;;;;;8.50;2.93;;;10.70;99.90;;;;;;4926574;29;20228;-73
2022/04/09 07:35:07;;;;;;;4.10;2.13;;;10.40;99.90;;;;;;4937299;29;20238;-74
2022/04/09 07:37:39;;;;;;;7.97;2.30;;;10.20;99.90;;;;;;4942873;28;20223;-73
2022/04/09 07:40:05;;;;;;;8.40;3.03;;;10.60;99.90;;;;;;4923643;29;20220;-74
2022/04/09 07:42:30;;;;;;;8.30;2.80;;;10.20;99.90;;;;;;4937611;29;20567;-74
2022/04/09 07:44:56;;;;;;;5.83;2.20;;;9.80;99.90;;;;;;4937585;29;20224;-74
2022/04/09 07:47:21;;;;;;;6.80;3.17;;;10.10;99.90;;;;;;4936752;29;20771;-74
2022/04/09 07:49:49;;;;;;;5.90;2.73;;;10.60;99.90;;;;;;4935587;29;20223;-74
2022/04/09 07:52:14;;;;;;;9.67;2.40;;;11.10;99.90;;;;;;4935794;29;20226;-75
2022/04/09 07:54:40;;;;;;;11.03;2.77;;;12.10;99.90;;;;;;4936378;29;20316;-74
2022/04/09 07:57:06;;;;;;;7.70;2.30;;;13.60;99.90;;;;;;4935698;29;20231;-74
2022/04/09 07:59:32;;;;;;;8.38;2.20;;;14.20;99.90;;;;;;4917699;29;20598;-74
2022/04/09 08:01:57;;;;;;;9.40;2.40;;;13.70;99.90;;;;;;4935991;29;20218;-74
2022/04/09 08:04:22;;;;;;;9.93;4.70;;;13.30;99.90;;;;;;4937488;28;20302;-74
2022/04/09 08:06:48;;;;;;;9.03;3.70;;;12.50;99.90;;;;;;4935625;29;20215;-74
2022/04/09 08:09:13;;;;;;;6.73;2.40;;;12.90;99.90;;;;;;4922355;29;20239;-74
2022/04/09 08:11:39;;;;;;;7.97;2.63;;;12.40;99.90;;;;;;4945144;28;20215;-74
2022/04/09 08:14:04;;;;;;;6.17;2.33;;;12.00;99.90;;;;;;4924162;29;20306;-74
2022/04/09 08:16:30;;;;;;;6.30;2.50;;;12.10;99.90;;;;;;4935704;29;20238;-74
2022/04/09 08:18:56;;;;;;;6.60;2.23;;;13.10;99.90;;;;;;4935781;29;20168;-74
2022/04/09 08:21:21;;;;;;;10.15;3.08;;;14.80;99.90;;;;;;4937032;29;20183;-74
2022/04/09 08:23:47;;;;;;;8.45;2.70;;;15.00;99.90;;;;;;4935389;29;20212;-75
2022/04/09 08:26:13;;;;;;;8.20;2.90;;;13.70;99.90;;;;;;4935749;29;20220;-74
2022/04/09 08:28:40;;;;;;;7.87;3.27;;;12.40;99.90;;;;;;4919160;29;20752;-74
2022/04/09 08:31:06;;;;;;;6.27;2.33;;;11.50;99.90;;;;;;4938505;29;20366;-74
2022/04/09 08:33:31;;;;;;;5.17;2.20;;;10.90;99.90;;;;;;4920449;29;20207;-74
2022/04/09 08:35:57;;;;;;;3.27;2.00;;;10.60;99.90;;;;;;4936037;29;20716;-74
2022/04/09 08:38:22;;;;;;;5.13;2.37;;;10.50;99.90;;;;;;4919784;29;20235;-74
2022/04/09 08:40:48;;;;;;;5.27;2.83;;;10.10;99.90;;;;;;4935422;29;20222;-74
2022/04/09 08:43:14;;;;;;;8.17;3.23;;;10.10;99.90;;;;;;4918275;29;20227;-74
2022/04/09 08:45:42;;;;;;;6.10;2.97;;;10.00;99.90;;;;;;4919138;29;20228;-74
2022/04/09 08:48:09;;;;;;;9.83;3.50;;;10.40;99.90;;;;;;4934629;29;20608;-74
2022/04/09 08:50:36;;;;;;;7.10;2.30;;;10.90;99.90;;;;;;4918672;29;20223;-74
2022/04/09 08:53:06;;;;;;;6.83;2.10;;;11.20;99.90;;;;;;4918148;29;20632;-74
2022/04/09 08:55:34;;;;;;;5.43;2.00;;;12.30;99.90;;;;;;4935120;29;20230;-74
2022/04/09 08:57:59;;;;;;;8.60;2.20;;;11.80;99.90;;;;;;4934449;29;20187;-74
2022/04/09 09:00:25;;;;;;;7.60;2.60;;;12.60;99.90;;;;;;4935460;29;20208;-74
2022/04/09 09:02:53;;;;;;;9.27;2.20;;;12.90;99.90;;;;;;4934244;29;20216;-74
2022/04/09 09:07:54;;;;;;;10.90;3.10;;;12.30;99.90;;;;;;4970400;28;20214;-76
2022/04/09 09:10:19;;;;;;;7.97;2.47;;;12.80;99.90;;;;;;4972951;28;20221;-77
2022/04/09 09:13:05;;;;;;;7.20;2.10;;;13.40;99.90;;;;;;4956352;28;20217;-76
2022/04/09 09:15:43;;;;;;;5.27;1.73;;;13.10;99.90;;;;;;4973629;28;20206;-76
2022/04/09 09:18:21;;;;;;;8.97;3.17;;;13.30;99.90;;;;;;4972307;28;20226;-76
2022/04/09 09:20:49;;;;;;;9.53;2.10;;;13.00;99.90;;;;;;4948014;28;20217;-76
2022/04/09 09:23:31;;;;;;;4.87;2.07;;;12.90;99.90;;;;;;4967340;28;20210;-77
2022/04/09 09:25:58;;;;;;;4.37;2.43;;;12.20;99.90;;;;;;4966415;28;20225;-77
2022/04/09 09:28:31;;;;;;;6.63;2.10;;;12.30;99.90;;;;;;4972115;28;20245;-77
2022/04/09 09:30:58;;;;;;;5.27;1.77;;;12.00;99.90;;;;;;4966496;28;20678;-76
2022/04/09 09:33:24;;;;;;;5.57;1.73;;;12.60;99.90;;;;;;4973417;28;20225;-77
2022/04/09 09:35:59;;;;;;;6.37;2.03;;;12.60;99.90;;;;;;4972727;28;20276;-76
2022/04/09 09:38:29;;;;;;;5.47;1.93;;;13.00;99.90;;;;;;4971067;28;20320;-76
2022/04/09 09:40:56;;;;;;;5.00;1.97;;;12.40;99.90;;;;;;4957023;28;20252;-76
2022/04/09 09:43:23;;;;;;;7.30;1.80;;;12.30;99.90;;;;;;4972530;28;20308;-76
2022/04/09 09:45:52;;;;;;;4.77;2.33;;;12.20;99.90;;;;;;4972839;28;20336;-77
2022/04/09 09:48:25;;;;;;;10.23;2.63;;;12.50;99.90;;;;;;4972219;28;20202;-76
2022/04/09 09:50:53;;;;;;;3.77;2.27;;;12.90;99.90;;;;;;4947641;28;20210;-76
2022/04/09 09:53:34;;;;;;;8.37;2.33;;;12.90;99.90;;;;;;4972569;28;20245;-76
2022/04/09 09:56:01;;;;;;;4.27;1.80;;;12.30;99.90;;;;;;4966209;28;20649;-77
2022/04/09 09:58:28;;;;;;;9.10;1.90;;;12.10;99.90;;;;;;4971634;28;20714;-77
2022/04/09 10:00:56;;;;;;;4.37;2.20;;;12.20;99.90;;;;;;4972580;28;20227;-77
2022/04/09 10:03:23;;;;;;;7.67;2.17;;;12.30;99.90;;;;;;4972731;28;20202;-76
2022/04/09 10:05:49;;;;;;;5.40;1.60;;;12.30;99.90;;;;;;4951264;28;20221;-76
2022/04/09 10:08:15;;;;;;;7.07;2.00;;;12.50;99.90;;;;;;4942274;29;20298;-77
2022/04/09 10:10:43;;;;;;;9.03;2.10;;;12.50;99.90;;;;;;4955837;28;20718;-76
2022/04/09 10:13:09;;;;;;;12.60;2.83;;;12.40;99.90;;;;;;4956498;28;20234;-75
2022/04/09 10:15:36;;;;;;;8.47;2.23;;;12.40;99.90;;;;;;4951983;28;20723;-77
2022/04/09 10:18:07;;;;;;;9.83;2.53;;;12.30;99.90;;;;;;4973510;28;20653;-75
2022/04/09 10:20:32;;;;;;;5.13;2.33;;;12.10;99.90;;;;;;4971566;28;20608;-75
2022/04/09 10:23:03;;;;;;;11.17;3.73;;;12.10;99.90;;;;;;4949114;28;20306;-74
2022/04/09 10:25:32;;;;;;;5.30;1.80;;;12.10;99.90;;;;;;4964472;28;20312;-75
2022/04/09 10:28:02;;;;;;;4.57;2.17;;;11.90;99.90;;;;;;4970449;28;20187;-76
2022/04/09 10:30:29;;;;;;;6.77;2.20;;;11.90;99.90;;;;;;4970246;28;20191;-76
2022/04/09 10:32:57;;;;;;;3.60;1.60;;;11.80;99.90;;;;;;4966470;28;20219;-74
2022/04/09 10:35:45;;;;;;;5.87;2.63;;;11.40;99.90;;;;;;4971733;28;20695;-77
2022/04/09 10:38:10;;;;;;;6.53;2.60;;;11.00;99.90;;;;;;4964436;28;20214;-77
2022/04/09 10:40:45;;;;;;;6.57;2.03;;;11.10;99.90;;;;;;4954317;28;20602;-76
2022/04/09 10:43:37;;;;;;;9.97;2.30;;;11.20;99.90;;;;;;4971694;28;20235;-76
2022/04/09 10:46:03;;;;;;;9.07;2.00;;;11.50;99.90;;;;;;4948932;28;20205;-78
2022/04/09 10:48:30;;;;;;;4.47;1.53;;;11.60;99.90;;;;;;4954462;28;20194;-78
2022/04/09 10:51:01;;;;;;;5.93;2.37;;;11.90;99.90;;;;;;4954797;28;20229;-77
2022/04/09 10:53:28;;;;;;;6.70;2.17;;;11.70;99.90;;;;;;4954361;28;20207;-77
2022/04/09 10:56:24;;;;;;;4.57;1.67;;;11.50;99.90;;;;;;4963893;28;20297;-76
2022/04/09 10:59:18;;;;;;;6.40;1.60;;;11.50;99.90;;;;;;4962926;28;20203;-76
2022/04/09 11:01:46;;;;;;;7.03;1.67;;;11.20;99.90;;;;;;4971137;28;20198;-75
2022/04/09 11:04:36;;;;;;;5.90;1.73;;;11.00;99.90;;;;;;4975037;28;20214;-77
2022/04/09 11:07:16;;;;;;;7.43;1.97;;;10.90;99.90;;;;;;4969432;28;20220;-77
2022/04/09 11:09:42;;;;;;;6.20;1.70;;;11.20;99.90;;;;;;4956860;28;20198;-77
2022/04/09 11:12:08;;;;;;;6.17;1.30;;;11.70;99.90;;;;;;4957823;28;20242;-76
2022/04/09 11:14:45;;;;;;;4.40;1.70;;;11.90;99.90;;;;;;4975027;28;20301;-75
2022/04/09 11:17:26;;;;;;;3.57;1.20;;;12.10;99.90;;;;;;4957462;28;20214;-76
2022/04/09 11:19:52;;;;;;;6.27;1.40;;;11.90;99.90;;;;;;4966855;28;20222;-76
2022/04/09 11:22:18;;;;;;;4.20;1.77;;;11.40;99.90;;;;;;4974631;28;20218;-76
2022/04/09 11:24:44;;;;;;;4.30;1.67;;;11.60;99.90;;;;;;4974944;28;20197;-77
2022/04/09 11:27:12;;;;;;;3.27;1.30;;;11.90;99.90;;;;;;4974526;28;20711;-76
2022/04/09 11:29:40;;;;;;;6.47;1.67;;;12.30;99.90;;;;;;4973702;28;20612;-77
2022/04/09 11:32:06;;;;;;;5.87;1.73;;;12.00;99.90;;;;;;4974689;28;20622;-77
2022/04/09 11:35:00;;;;;;;2.03;1.20;;;11.80;99.90;;;;;;4974493;28;20273;-76
2022/04/09 11:37:29;;;;;;;16.67;9.67;;;11.40;99.90;;;;;;4954815;28;20226;-76
2022/04/09 11:39:56;;;;;;;3.50;1.30;;;11.50;99.90;;;;;;4973794;28;20210;-76
2022/04/09 11:42:21;;;;;;;4.37;1.93;;;11.50;99.90;;;;;;4974869;28;20186;-76
2022/04/09 11:44:47;;;;;;;9.80;4.07;;;11.50;99.90;;;;;;4974558;28;20206;-77
2022/04/09 11:47:15;;;;;;;2.87;1.20;;;11.60;99.90;;;;;;4972980;28;20214;-78
2022/04/09 11:49:47;;;;;;;8.40;4.17;;;11.80;99.90;;;;;;4972530;28;20956;-75
2022/04/09 11:52:23;;;;;;;4.93;1.70;;;12.10;99.90;;;;;;4973895;28;20301;-78
2022/04/09 11:54:48;;;;;;;4.50;2.10;;;12.20;99.90;;;;;;4966632;28;20683;-77
2022/04/09 11:57:14;;;;;;;5.50;1.40;;;11.90;99.90;;;;;;4974786;28;20237;-79
2022/04/09 11:59:40;;;;;;;3.60;1.57;;;12.10;99.90;;;;;;4955925;28;20658;-77
2022/04/09 12:02:19;;;;;;;3.77;1.10;;;12.10;99.90;;;;;;4974240;28;20206;-77
2022/04/09 12:04:45;;;;;;;1.57;1.13;;;11.70;99.90;;;;;;4974009;28;20754;-76
2022/04/09 12:07:11;;;;;;;4.40;1.20;;;11.80;99.90;;;;;;4972979;28;20309;-78
2022/04/09 12:09:37;;;;;;;3.53;1.43;;;11.80;99.90;;;;;;4955406;28;20277;-79
2022/04/09 12:12:04;;;;;;;3.23;1.20;;;11.50;99.90;;;;;;4974315;28;20214;-77
2022/04/09 12:14:29;;;;;;;1.20;0.70;;;11.70;99.90;;;;;;4956323;28;20273;-78
2022/04/09 12:16:55;;;;;;;2.60;0.90;;;11.50;99.90;;;;;;4956666;28;20210;-77
2022/04/09 12:19:28;;;;;;;3.73;1.30;;;11.70;99.90;;;;;;4955461;28;20242;-76
2022/04/09 12:21:54;;;;;;;2.20;0.90;;;12.10;99.90;;;;;;4973985;28;20254;-78
2022/04/09 12:24:19;;;;;;;4.07;1.37;;;12.30;99.90;;;;;;4966334;28;20270;-79
2022/04/09 12:26:52;;;;;;;5.77;1.57;;;11.90;99.90;;;;;;4973449;28;20209;-78
2022/04/09 12:29:22;;;;;;;5.03;1.90;;;11.80;99.90;;;;;;4973067;28;20214;-76
2022/04/09 12:31:51;;;;;;;6.13;1.80;;;11.60;99.90;;;;;;4948969;28;20655;-77
2022/04/09 12:34:17;;;;;;;5.00;1.63;;;11.70;99.90;;;;;;4973561;28;20308;-76
2022/04/09 12:37:07;;;;;;;3.97;1.60;;;11.70;99.90;;;;;;4974034;28;20200;-76
2022/04/09 12:39:33;;;;;;;2.47;0.90;;;11.90;99.90;;;;;;4971645;28;20221;-78
2022/04/09 12:42:00;;;;;;;3.07;1.00;;;12.00;99.90;;;;;;4973704;28;20210;-77
2022/04/09 12:44:31;;;;;;;2.10;0.90;;;12.10;99.90;;;;;;4965672;28;20211;-79
2022/04/09 12:46:57;;;;;;;3.97;1.30;;;12.20;99.90;;;;;;4956180;28;20715;-76
2022/04/09 12:49:41;;;;;;;3.00;1.00;;;12.00;99.90;;;;;;4972741;28;20229;-77
2022/04/09 12:52:09;;;;;;;1.87;0.90;;;11.70;99.90;;;;;;4973702;28;20225;-78
2022/04/09 12:54:35;;;;;;;2.60;1.17;;;11.50;99.90;;;;;;4973877;28;20209;-78
2022/04/09 12:57:11;;;;;;;2.70;1.00;;;11.40;99.90;;;;;;4973419;28;20214;-78